createdAt,value
2018-04-11T00:02:16.955Z,1.10
2018-04-11T00:04:48.436Z,1.47
2018-04-11T00:07:19.353Z,1.23
2018-04-11T00:09:51.103Z,1.20
2018-04-11T00:12:23.579Z,1.10
2018-04-11T00:14:55.861Z,1.30
2018-04-11T00:17:27.829Z,1.10
2018-04-11T00:19:58.965Z,1.30
2018-04-11T00:22:32.876Z,1.20
2018-04-11T00:25:05.854Z,1.07
2018-04-11T00:27:37.527Z,1.20
2018-04-11T00:30:08.690Z,1.23
2018-04-11T00:32:40.934Z,1.20
2018-04-11T00:35:13.809Z,1.00
2018-04-11T00:37:45.256Z,1.10
2018-04-11T00:40:16.820Z,1.20
2018-04-11T00:42:48.268Z,1.20
2018-04-11T00:45:20.062Z,1.00
2018-04-11T00:47:52.997Z,1.00
2018-04-11T00:50:24.659Z,1.20
2018-04-11T00:53:08.170Z,1.00
2018-04-11T00:55:40.169Z,1.10
2018-04-11T00:58:12.203Z,1.30
2018-04-11T01:00:44.295Z,1.13
2018-04-11T01:03:16.308Z,1.10
2018-04-11T01:05:48.189Z,0.90
2018-04-11T01:08:22.398Z,1.20
2018-04-11T01:10:55.331Z,1.10
2018-04-11T01:13:29.043Z,1.20
2018-04-11T01:16:02.143Z,1.40
2018-04-11T01:18:33.575Z,1.00
2018-04-11T01:21:05.921Z,1.00
2018-04-11T01:23:37.615Z,1.30
2018-04-11T01:26:10.146Z,1.00
2018-04-11T01:28:43.426Z,1.00
2018-04-11T01:31:15.279Z,1.20
2018-04-11T01:33:48.694Z,0.90
2018-04-11T01:36:20.348Z,1.00
2018-04-11T01:38:53.004Z,1.03
2018-04-11T01:41:26.023Z,1.33
2018-04-11T01:43:58.592Z,1.10
2018-04-11T01:46:31.275Z,1.10
2018-04-11T01:49:02.542Z,0.93
2018-04-11T01:51:33.470Z,1.03
2018-04-11T01:54:07.239Z,1.00
2018-04-11T01:56:38.833Z,1.10
2018-04-11T01:59:10.056Z,1.07
2018-04-11T02:01:42.923Z,1.00
2018-04-11T02:04:14.611Z,1.10
2018-04-11T02:06:46.299Z,1.10
2018-04-11T02:09:18.912Z,1.00
2018-04-11T02:11:51.046Z,1.00
2018-04-11T02:14:22.503Z,1.10
2018-04-11T02:16:54.546Z,1.03
2018-04-11T02:19:26.138Z,1.00
2018-04-11T02:21:58.646Z,0.90
2018-04-11T02:24:31.066Z,1.10
2018-04-11T02:27:02.163Z,1.10
2018-04-11T02:29:33.645Z,1.00
2018-04-11T02:32:05.899Z,1.00
2018-04-11T02:34:38.501Z,0.90
2018-04-11T02:37:10.324Z,1.10
2018-04-11T02:39:42.248Z,1.10
2018-04-11T02:42:15.451Z,1.00
2018-04-11T02:44:47.504Z,0.83
2018-04-11T02:47:19.292Z,0.90
2018-04-11T02:49:51.431Z,0.90
2018-04-11T02:52:23.943Z,0.90
2018-04-11T02:54:56.582Z,1.00
2018-04-11T02:57:28.462Z,1.00
2018-04-11T03:00:00.812Z,1.10
2018-04-11T03:02:32.612Z,1.10
2018-04-11T03:05:04.328Z,1.20
2018-04-11T03:07:35.804Z,0.90
2018-04-11T03:10:07.211Z,0.80
2018-04-11T03:12:38.447Z,1.17
2018-04-11T03:15:10.731Z,0.90
2018-04-11T03:17:42.504Z,0.90
2018-04-11T03:20:15.102Z,0.90
2018-04-11T03:22:46.870Z,0.80
2018-04-11T03:25:19.298Z,1.00
2018-04-11T03:27:51.071Z,1.20
2018-04-11T03:30:23.371Z,0.97
2018-04-11T03:32:56.075Z,1.30
2018-04-11T03:35:27.547Z,0.90
2018-04-11T03:37:59.027Z,0.90
2018-04-11T03:40:31.509Z,1.00
2018-04-11T03:43:03.478Z,1.00
2018-04-11T03:45:36.396Z,1.00
2018-04-11T03:48:07.203Z,0.90
2018-04-11T03:50:38.413Z,0.93
2018-04-11T03:53:11.759Z,0.70
2018-04-11T03:55:43.135Z,1.03
2018-04-11T03:58:14.606Z,0.87
2018-04-11T04:00:46.868Z,0.93
2018-04-11T04:03:18.749Z,1.10
2018-04-11T04:05:49.592Z,1.10
2018-04-11T04:08:20.732Z,1.00
2018-04-11T04:10:52.674Z,0.90
2018-04-11T04:13:35.551Z,0.80
2018-04-11T04:16:18.574Z,1.00
2018-04-11T04:19:02.243Z,1.10
2018-04-11T04:21:33.900Z,0.90
2018-04-11T04:24:08.107Z,0.90
2018-04-11T04:26:39.881Z,1.00
2018-04-11T04:29:11.655Z,0.80
2018-04-11T04:31:42.973Z,0.70
2018-04-11T04:34:14.248Z,1.00
2018-04-11T04:36:45.702Z,0.90
2018-04-11T04:39:19.926Z,1.00
2018-04-11T04:41:51.071Z,1.00
2018-04-11T04:44:22.486Z,0.90
2018-04-11T04:46:54.839Z,0.80
2018-04-11T04:49:26.066Z,1.00
2018-04-11T04:51:57.518Z,0.80
2018-04-11T04:54:29.325Z,1.00
2018-04-11T04:57:01.073Z,0.83
2018-04-11T04:59:33.038Z,1.20
2018-04-11T05:02:05.643Z,0.90
2018-04-11T05:04:37.382Z,0.90
2018-04-11T05:07:08.907Z,0.63
2018-04-11T05:09:40.358Z,0.80
2018-04-11T05:12:12.862Z,1.00
2018-04-11T05:14:44.308Z,0.97
2018-04-11T05:17:16.011Z,0.90
2018-04-11T05:19:47.380Z,0.93
2018-04-11T05:22:18.602Z,1.00
2018-04-11T05:24:49.736Z,0.83
2018-04-11T05:27:21.499Z,0.80
2018-04-11T05:29:53.869Z,0.90
2018-04-11T05:32:25.459Z,0.80
2018-04-11T05:34:57.935Z,0.80
2018-04-11T05:37:30.559Z,0.93
2018-04-11T05:40:01.755Z,0.83
2018-04-11T05:42:33.501Z,1.00
2018-04-11T05:45:06.232Z,0.80
2018-04-11T05:47:37.292Z,0.90
2018-04-11T05:50:09.426Z,0.90
2018-04-11T05:52:41.718Z,0.87
2018-04-11T05:55:14.083Z,0.83
2018-04-11T05:57:48.060Z,0.90
2018-04-11T06:00:19.959Z,0.90
2018-04-11T06:02:53.166Z,1.00
2018-04-11T06:05:24.789Z,0.90
2018-04-11T06:07:56.125Z,1.00
2018-04-11T06:10:28.086Z,0.90
2018-04-11T06:12:59.822Z,0.77
2018-04-11T06:15:31.582Z,0.90
2018-04-11T06:18:03.957Z,0.90
2018-04-11T06:20:35.463Z,1.10
2018-04-11T06:23:08.751Z,0.90
2018-04-11T06:25:40.335Z,0.90
2018-04-11T06:28:12.696Z,0.80
2018-04-11T06:30:45.060Z,1.20
2018-04-11T06:33:16.778Z,0.90
2018-04-11T06:35:48.542Z,0.90
2018-04-11T06:38:20.601Z,1.00
2018-04-11T06:40:52.255Z,0.87
2018-04-11T06:43:23.659Z,1.10
2018-04-11T06:45:54.826Z,1.03
2018-04-11T06:48:27.234Z,0.70
2018-04-11T06:50:58.634Z,0.90
2018-04-11T06:53:31.414Z,1.00
2018-04-11T06:56:03.750Z,0.80
2018-04-11T06:58:36.379Z,0.80
2018-04-11T07:01:08.158Z,0.90
2018-04-11T07:03:40.758Z,0.80
2018-04-11T07:06:15.358Z,0.80
2018-04-11T07:08:46.527Z,1.00
2018-04-11T07:11:18.557Z,0.97
2018-04-11T07:13:52.121Z,1.00
2018-04-11T07:16:23.507Z,0.80
2018-04-11T07:18:56.266Z,0.90
2018-04-11T07:21:28.061Z,0.90
2018-04-11T07:24:00.362Z,0.90
2018-04-11T07:26:32.159Z,0.90
2018-04-11T07:29:03.917Z,0.90
2018-04-11T07:31:35.295Z,0.80
2018-04-11T07:34:06.600Z,0.80
2018-04-11T07:36:39.281Z,0.90
2018-04-11T07:39:12.197Z,1.00
2018-04-11T07:41:44.691Z,0.90
2018-04-11T07:44:21.520Z,1.07
2018-04-11T07:46:53.010Z,0.77
2018-04-11T07:49:24.593Z,1.00
2018-04-11T07:51:57.734Z,0.90
2018-04-11T07:54:29.713Z,1.00
2018-04-11T07:57:02.858Z,1.03
2018-04-11T07:59:34.674Z,0.90
2018-04-11T08:02:06.843Z,1.00
2018-04-11T08:04:39.978Z,0.90
2018-04-11T08:07:11.349Z,1.10
2018-04-11T08:09:42.248Z,1.20
2018-04-11T08:12:16.078Z,1.00
2018-04-11T08:14:47.587Z,1.03
2018-04-11T08:17:18.993Z,1.03
2018-04-11T08:19:52.392Z,1.20
2018-04-11T08:22:25.731Z,1.30
2018-04-11T08:24:58.703Z,1.27
2018-04-11T08:27:31.494Z,1.10
2018-04-11T08:30:02.668Z,1.20
2018-04-11T08:32:33.983Z,1.67
2018-04-11T08:35:05.546Z,1.30
2018-04-11T08:37:37.771Z,1.07
2018-04-11T08:40:09.372Z,1.27
2018-04-11T08:42:42.349Z,1.07
2018-04-11T08:45:13.527Z,1.50
2018-04-11T08:47:45.899Z,2.43
2018-04-11T08:50:17.679Z,2.20
2018-04-11T08:52:49.683Z,2.30
2018-04-11T08:55:21.169Z,3.00
2018-04-11T08:57:53.726Z,2.47
2018-04-11T09:00:25.414Z,2.60
2018-04-11T09:02:57.078Z,2.13
2018-04-11T09:05:28.625Z,2.63
2018-04-11T09:08:00.086Z,2.67
2018-04-11T09:10:33.124Z,1.87
2018-04-11T09:13:05.724Z,2.50
2018-04-11T09:15:36.791Z,2.20
2018-04-11T09:18:09.186Z,2.10
2018-04-11T09:20:40.958Z,2.30
2018-04-11T09:23:14.150Z,2.30
2018-04-11T09:25:46.723Z,2.73
2018-04-11T09:28:18.115Z,2.20
2018-04-11T09:30:50.662Z,2.30
2018-04-11T09:33:22.202Z,2.53
2018-04-11T09:35:55.036Z,2.77
2018-04-11T09:38:26.242Z,2.23
2018-04-11T09:40:57.695Z,2.20
2018-04-11T09:43:29.203Z,2.07
2018-04-11T09:46:01.529Z,2.23
2018-04-11T09:48:33.005Z,2.10
2018-04-11T09:51:04.411Z,2.27
2018-04-11T09:53:36.098Z,2.27
2018-04-11T09:56:07.927Z,1.77
2018-04-11T09:58:39.459Z,2.40
2018-04-11T10:01:10.898Z,2.23
2018-04-11T10:03:45.664Z,2.40
2018-04-11T10:06:16.808Z,2.33
2018-04-11T10:08:48.447Z,1.97
2018-04-11T10:11:19.775Z,2.50
2018-04-11T10:13:52.955Z,1.93
2018-04-11T10:16:26.611Z,2.00
2018-04-11T10:18:58.866Z,2.00
2018-04-11T10:21:29.957Z,1.97
2018-04-11T10:24:01.971Z,2.37
2018-04-11T10:26:33.258Z,1.90
2018-04-11T10:29:05.544Z,1.93
2018-04-11T10:31:38.666Z,2.40
2018-04-11T10:34:10.158Z,1.97
2018-04-11T10:36:41.409Z,1.73
2018-04-11T10:39:14.789Z,1.97
2018-04-11T10:41:45.814Z,2.20
2018-04-11T10:44:20.276Z,2.57
2018-04-11T10:46:51.710Z,2.50
2018-04-11T10:49:24.434Z,2.83
2018-04-11T10:51:56.010Z,2.23
2018-04-11T10:54:27.578Z,3.00
2018-04-11T11:04:17.351Z,1.90
2018-04-11T11:20:09.730Z,0.63
2018-04-11T11:27:15.063Z,4.50
2018-04-11T11:29:47.623Z,4.07
2018-04-11T11:32:21.191Z,3.33
2018-04-11T11:34:52.643Z,3.20
2018-04-11T11:37:25.255Z,3.07
2018-04-11T11:39:58.101Z,3.80
2018-04-11T11:42:29.934Z,3.90
2018-04-11T11:45:03.475Z,4.00
2018-04-11T11:47:35.323Z,3.43
2018-04-11T11:50:06.623Z,3.30
2018-04-11T11:52:38.323Z,3.33
2018-04-11T11:55:12.421Z,3.37
2018-04-11T11:57:43.949Z,3.80
2018-04-11T12:00:15.618Z,3.57
2018-04-11T12:02:48.167Z,3.30
2018-04-11T12:05:20.073Z,3.20
2018-04-11T12:07:52.848Z,3.13
2018-04-11T12:10:24.911Z,3.50
2018-04-11T12:12:56.061Z,3.37
2018-04-11T12:15:27.822Z,3.40
2018-04-11T12:18:01.486Z,3.10
2018-04-11T12:20:34.510Z,2.90
2018-04-11T12:23:08.099Z,3.20
2018-04-11T12:25:40.918Z,3.00
2018-04-11T12:28:15.467Z,2.93
2018-04-11T12:30:47.266Z,3.10
2018-04-11T12:33:19.700Z,3.00
2018-04-11T12:35:52.214Z,2.83
2018-04-11T12:38:24.792Z,2.97
2018-04-11T12:40:56.838Z,3.10
2018-04-11T12:43:30.808Z,3.03
2018-04-11T12:46:03.388Z,2.90
2018-04-11T12:48:36.676Z,3.30
2018-04-11T12:51:08.809Z,3.10
2018-04-11T12:53:41.904Z,2.90
2018-04-11T12:56:14.172Z,2.83
2018-04-11T12:58:46.304Z,3.40
2018-04-11T13:01:18.815Z,2.67
2018-04-11T13:03:53.140Z,3.10
2018-04-11T13:06:25.078Z,3.20
2018-04-11T13:08:57.750Z,2.80
2018-04-11T13:11:29.488Z,3.20
2018-04-11T13:14:01.176Z,2.70
2018-04-11T13:16:34.115Z,2.93
2018-04-11T13:19:06.079Z,2.77
2018-04-11T13:21:39.600Z,2.97
2018-04-11T13:24:12.751Z,2.80
2018-04-11T13:26:45.079Z,3.23
2018-04-11T13:29:16.985Z,3.00
2018-04-11T13:31:48.392Z,3.03
2018-04-11T13:34:20.286Z,2.60
2018-04-11T13:36:53.859Z,2.90
2018-04-11T13:39:26.236Z,2.87
2018-04-11T13:41:58.571Z,2.97
2018-04-11T13:44:31.060Z,2.53
2018-04-11T13:47:04.427Z,4.53
2018-04-11T13:49:38.595Z,5.23
2018-04-11T13:52:12.184Z,4.90
2018-04-11T13:54:45.789Z,5.23
2018-04-11T13:57:17.454Z,6.03
2018-04-11T13:59:49.836Z,6.80
2018-04-11T14:02:23.708Z,5.90
2018-04-11T14:04:55.387Z,6.23
2018-04-11T14:07:26.923Z,5.90
2018-04-11T14:09:57.538Z,5.50
2018-04-11T14:12:29.207Z,4.77
2018-04-11T14:15:01.045Z,5.07
2018-04-11T14:17:33.072Z,4.33
2018-04-11T14:20:06.185Z,4.43
2018-04-11T14:22:38.769Z,4.47
2018-04-11T14:25:12.731Z,4.47
2018-04-11T14:27:44.633Z,3.80
2018-04-11T14:30:17.170Z,3.97
2018-04-11T14:32:48.495Z,4.17
2018-04-11T14:35:21.761Z,3.80
2018-04-11T14:37:52.902Z,4.20
2018-04-11T14:40:25.486Z,4.23
2018-04-11T14:42:58.863Z,4.20
2018-04-11T14:45:31.936Z,4.20
2018-04-11T14:48:05.227Z,4.27
2018-04-11T14:50:45.686Z,4.40
2018-04-11T14:53:18.578Z,4.40
2018-04-11T14:55:51.728Z,3.33
2018-04-11T14:58:23.888Z,4.50
2018-04-11T15:00:56.995Z,4.40
2018-04-11T15:03:29.980Z,4.30
2018-04-11T15:06:02.418Z,3.90
2018-04-11T15:08:34.767Z,4.17
2018-04-11T15:11:06.351Z,4.00
2018-04-11T15:13:38.180Z,4.10
2018-04-11T15:16:10.760Z,3.73
2018-04-11T15:18:41.906Z,4.20
2018-04-11T15:21:14.026Z,4.60
2018-04-11T15:23:45.437Z,3.93
2018-04-11T15:26:17.522Z,5.30
2018-04-11T15:28:50.184Z,4.67
2018-04-11T15:31:22.879Z,5.93
2018-04-11T15:33:55.823Z,5.90
2018-04-11T15:36:29.762Z,5.87
2018-04-11T15:39:01.797Z,5.50
2018-04-11T15:41:34.167Z,5.63
2018-04-11T15:44:06.659Z,5.70
2018-04-11T15:46:38.577Z,4.90
2018-04-11T15:49:11.273Z,5.93
2018-04-11T15:51:42.796Z,5.63
2018-04-11T15:54:14.332Z,5.70
2018-04-11T15:56:47.366Z,5.33
2018-04-11T15:59:19.190Z,5.60
2018-04-11T16:01:50.154Z,5.60
2018-04-11T16:04:22.130Z,5.40
2018-04-11T16:06:54.583Z,5.37
2018-04-11T16:09:27.059Z,6.07
2018-04-11T16:11:59.354Z,6.50
2018-04-11T16:14:32.542Z,6.17
2018-04-11T16:17:05.221Z,6.00
2018-04-11T16:19:36.403Z,6.10
2018-04-11T16:22:09.140Z,7.03
2018-04-11T16:24:49.300Z,8.33
2018-04-11T16:27:23.564Z,7.40
2018-04-11T16:29:54.967Z,6.83
2018-04-11T16:32:26.960Z,7.33
2018-04-11T16:34:59.551Z,7.63
2018-04-11T16:37:32.273Z,6.57
2018-04-11T16:40:03.878Z,7.10
2018-04-11T16:42:37.035Z,6.83
2018-04-11T16:45:08.539Z,7.47
2018-04-11T16:47:40.808Z,8.70
2018-04-11T16:50:13.892Z,7.17
2018-04-11T16:52:46.505Z,8.93
2018-04-11T16:55:20.673Z,7.67
2018-04-11T16:57:52.547Z,6.70
2018-04-11T17:00:26.017Z,7.50
2018-04-11T17:02:57.180Z,7.37
2018-04-11T17:05:30.740Z,8.30
2018-04-11T17:08:02.583Z,6.40
2018-04-11T17:10:35.939Z,6.57
2018-04-11T17:13:08.783Z,5.60
2018-04-11T17:15:40.609Z,5.53
2018-04-11T17:18:13.586Z,5.80
2018-04-11T17:20:58.635Z,6.17
2018-04-11T17:23:41.454Z,6.13
2018-04-11T17:26:23.785Z,6.97
2018-04-11T17:29:07.735Z,6.33
2018-04-11T17:31:40.676Z,6.40
2018-04-11T17:34:12.632Z,5.70
2018-04-11T17:36:43.908Z,5.80
2018-04-11T17:39:16.517Z,5.97
2018-04-11T17:41:49.723Z,6.33
2018-04-11T17:44:21.856Z,5.63
2018-04-11T17:46:53.224Z,6.07
2018-04-11T17:49:24.471Z,6.50
2018-04-11T17:51:57.743Z,5.77
2018-04-11T17:54:29.355Z,8.97
2018-04-11T17:57:01.984Z,7.50
2018-04-11T17:59:35.323Z,7.10
2018-04-11T18:02:08.352Z,6.83
2018-04-11T18:04:41.157Z,7.00
2018-04-11T18:07:13.266Z,8.00
2018-04-11T18:09:45.757Z,8.88
2018-04-11T18:12:18.714Z,7.82
2018-04-11T18:14:51.828Z,7.75
2018-04-11T18:17:23.550Z,8.75
2018-04-11T18:19:55.739Z,7.87
2018-04-11T18:22:27.735Z,8.13
2018-04-11T18:25:00.776Z,7.63
2018-04-11T18:27:33.694Z,8.55
2018-04-11T18:30:06.527Z,8.15
2018-04-11T18:32:39.089Z,7.53
2018-04-11T18:35:13.861Z,8.18
2018-04-11T18:37:47.117Z,8.40
2018-04-11T18:40:20.095Z,6.70
2018-04-11T18:42:53.174Z,8.18
2018-04-11T18:45:25.203Z,7.13
2018-04-11T18:47:56.908Z,7.93
2018-04-11T18:50:29.360Z,6.97
2018-04-11T18:53:01.556Z,7.45
2018-04-11T18:55:35.083Z,7.18
2018-04-11T18:58:07.359Z,7.10
2018-04-11T19:00:40.792Z,7.78
2018-04-11T19:03:12.797Z,7.12
2018-04-11T19:05:45.431Z,9.30
2018-04-11T19:08:17.648Z,7.40
2018-04-11T19:10:52.247Z,7.68
2018-04-11T19:13:24.837Z,6.80
2018-04-11T19:15:58.823Z,8.63
2018-04-11T19:18:32.411Z,8.68
2018-04-11T19:21:05.311Z,8.45
2018-04-11T19:23:37.612Z,8.50
2018-04-11T19:26:12.562Z,7.43
2018-04-11T19:28:46.630Z,7.90
2018-04-11T19:31:17.853Z,7.75
2018-04-11T19:33:52.047Z,6.65
2018-04-11T19:36:25.208Z,6.57
2018-04-11T19:38:58.495Z,6.60
2018-04-11T19:41:31.455Z,6.80
2018-04-11T19:44:03.903Z,7.55
2018-04-11T19:46:36.019Z,7.05
2018-04-11T19:49:08.512Z,6.25
2018-04-11T19:51:40.336Z,6.65
2018-04-11T19:54:12.752Z,7.55
2018-04-11T19:56:45.352Z,7.10
2018-04-11T19:59:17.814Z,6.78
2018-04-11T20:01:51.954Z,6.43
2018-04-11T20:04:25.853Z,6.40
2018-04-11T20:06:58.600Z,7.18
2018-04-11T20:09:34.474Z,7.53
2018-04-11T20:12:08.415Z,7.93
2018-04-11T20:14:43.143Z,8.57
2018-04-11T20:17:16.958Z,8.38
2018-04-11T20:19:50.732Z,7.95
2018-04-11T20:22:23.976Z,7.60
2018-04-11T20:24:56.133Z,7.85
2018-04-11T20:27:28.299Z,8.82
2018-04-11T20:29:59.940Z,8.48
2018-04-11T20:32:33.782Z,10.98
2018-04-11T20:35:06.326Z,12.93
2018-04-11T20:37:38.862Z,11.20
2018-04-11T20:40:11.460Z,12.10
2018-04-11T20:42:44.400Z,12.45
2018-04-11T20:45:16.570Z,10.60
2018-04-11T20:47:50.346Z,9.00
2018-04-11T20:50:22.227Z,9.57
2018-04-11T20:52:54.308Z,10.60
2018-04-11T20:55:26.311Z,10.75
2018-04-11T20:58:00.138Z,9.63
2018-04-11T21:00:32.125Z,10.52
2018-04-11T21:03:03.788Z,10.50
2018-04-11T21:05:36.693Z,10.15
2018-04-11T21:08:09.675Z,11.85
2018-04-11T21:10:42.278Z,12.35
2018-04-11T21:13:14.194Z,11.20
2018-04-11T21:15:48.215Z,12.30
2018-04-11T21:18:20.031Z,10.70
2018-04-11T21:20:53.031Z,11.18
2018-04-11T21:23:26.300Z,11.30
2018-04-11T21:25:59.268Z,9.52
2018-04-11T21:28:32.881Z,9.75
2018-04-11T21:31:06.007Z,10.80
2018-04-11T21:33:39.269Z,9.02
2018-04-11T21:36:12.380Z,9.40
2018-04-11T21:38:44.496Z,11.57
2018-04-11T21:41:18.137Z,11.90
2018-04-11T21:43:51.415Z,8.90
2018-04-11T21:46:23.599Z,9.00
2018-04-11T21:48:56.213Z,9.25
2018-04-11T21:51:29.823Z,7.72
2018-04-11T21:54:01.417Z,10.18
2018-04-11T21:56:34.595Z,8.63
2018-04-11T21:59:07.483Z,6.97
2018-04-11T22:01:40.107Z,7.37
2018-04-11T22:04:13.584Z,7.80
2018-04-11T22:06:46.447Z,9.02
2018-04-11T22:09:18.832Z,8.82
2018-04-11T22:11:51.500Z,8.00
2018-04-11T22:14:23.788Z,7.85
2018-04-11T22:16:56.500Z,8.10
2018-04-11T22:19:28.740Z,7.57
2018-04-11T22:22:02.059Z,7.70
2018-04-11T22:24:34.074Z,8.07
2018-04-11T22:27:07.664Z,8.23
2018-04-11T22:29:40.160Z,7.90
2018-04-11T22:32:12.899Z,8.55
2018-04-11T22:34:44.987Z,7.93
2018-04-11T22:37:16.844Z,9.45
2018-04-11T22:39:50.490Z,9.77
2018-04-11T22:42:22.840Z,8.52
2018-04-11T22:44:56.752Z,9.52
2018-04-11T22:47:29.627Z,9.07
2018-04-11T22:50:01.826Z,7.47
2018-04-11T22:52:31.230Z,9.63
2018-04-11T22:55:00.998Z,9.57
2018-04-11T22:57:32.310Z,9.32
2018-04-11T23:00:01.776Z,9.38
2018-04-11T23:02:32.269Z,8.98
2018-04-11T23:05:05.895Z,9.18
2018-04-11T23:07:35.663Z,9.00
2018-04-11T23:10:05.000Z,8.52
2018-04-11T23:12:35.874Z,9.40
2018-04-11T23:15:06.010Z,9.02
2018-04-11T23:17:37.102Z,10.07
2018-04-11T23:20:07.724Z,8.15
2018-04-11T23:22:36.098Z,10.15
2018-04-11T23:25:04.847Z,9.27
2018-04-11T23:27:34.959Z,11.68
2018-04-11T23:30:05.181Z,9.93
2018-04-11T23:32:35.402Z,10.93
2018-04-11T23:35:12.834Z,10.02
2018-04-11T23:37:42.746Z,9.88
2018-04-11T23:40:14.474Z,10.05
2018-04-11T23:42:43.155Z,9.18
2018-04-11T23:45:13.145Z,10.95
2018-04-11T23:47:42.955Z,9.20
2018-04-11T23:50:12.428Z,9.88
2018-04-11T23:52:44.558Z,9.18
2018-04-11T23:55:13.044Z,8.90
2018-04-11T23:57:42.514Z,7.90
